Time;durP1;ratioP1;P1;durP2;ratioP2;P2;SDS_P1;SDS_P2;PMS_P1;PMS_P2;Temp;Humidity;BMP_temperature;BMP_pressure;BME280_temperature;BME280_humidity;BME280_pressure;Samples;Min_cycle;Max_cycle;Signal;HPM_P1;HPM_P2
2022/09/21 00:00:21;;;;;;;4.13;3.10;;;8.00;99.90;;;;;;5046062;28;20219;-45
2022/09/21 00:02:49;;;;;;;6.87;3.33;;;;;;;;;;5037845;28;20347;-43
2022/09/21 00:05:16;;;;;;;6.00;2.73;;;7.90;99.90;;;;;;5065090;28;20621;-44
2022/09/21 00:07:44;;;;;;;4.30;3.03;;;7.90;99.90;;;;;;5062073;28;20313;-46
2022/09/21 00:10:10;;;;;;;4.60;3.20;;;7.90;99.90;;;;;;5046935;28;20221;-44
2022/09/21 00:12:38;;;;;;;6.07;4.37;;;7.90;99.90;;;;;;5041938;28;20718;-50
2022/09/21 00:15:07;;;;;;;5.90;3.13;;;7.90;99.90;;;;;;5044088;28;20211;-44
2022/09/21 00:17:35;;;;;;;4.33;3.23;;;7.90;99.90;;;;;;5043809;28;20188;-45
2022/09/21 00:20:04;;;;;;;7.70;3.57;;;7.80;99.90;;;;;;5040234;28;20192;-44
2022/09/21 00:22:30;;;;;;;4.67;3.00;;;7.80;99.90;;;;;;5043768;28;20207;-48
2022/09/21 00:24:57;;;;;;;5.40;2.90;;;7.90;99.90;;;;;;5040877;28;20298;-46
2022/09/21 00:27:28;;;;;;;5.20;3.30;;;7.90;99.90;;;;;;5031760;28;20261;-44
2022/09/21 00:29:57;;;;;;;6.40;3.23;;;7.90;99.90;;;;;;5042925;28;20207;-43
2022/09/21 00:32:24;;;;;;;5.13;3.03;;;7.80;99.90;;;;;;5045104;28;20257;-46
2022/09/21 00:34:51;;;;;;;3.63;3.30;;;7.90;99.90;;;;;;5041147;28;20214;-43
2022/09/21 00:37:18;;;;;;;6.37;3.03;;;7.80;99.90;;;;;;5045442;28;20195;-44
2022/09/21 00:39:45;;;;;;;4.60;3.03;;;7.80;99.90;;;;;;5040057;28;20187;-43
2022/09/21 00:42:16;;;;;;;6.73;3.43;;;7.80;99.90;;;;;;5032504;28;20207;-44
2022/09/21 00:44:43;;;;;;;3.30;3.00;;;7.80;99.90;;;;;;5040113;28;20910;-47
2022/09/21 00:47:15;;;;;;;7.03;3.47;;;7.70;99.90;;;;;;5045510;28;20187;-43
2022/09/21 00:49:44;;;;;;;3.53;3.07;;;7.70;99.90;;;;;;5041037;28;20215;-46
2022/09/21 00:52:13;;;;;;;4.63;2.90;;;7.70;99.90;;;;;;5045177;28;20183;-44
2022/09/21 00:54:43;;;;;;;4.07;2.97;;;7.70;99.90;;;;;;5040200;28;20294;-48
2022/09/21 00:57:12;;;;;;;4.17;2.87;;;7.70;99.90;;;;;;5032637;28;20287;-44
2022/09/21 00:59:39;;;;;;;5.00;2.93;;;7.70;99.90;;;;;;5041589;28;20279;-49
2022/09/21 01:02:08;;;;;;;4.23;3.00;;;7.60;99.90;;;;;;5044495;28;20688;-43
2022/09/21 01:04:37;;;;;;;7.13;3.00;;;7.60;99.90;;;;;;5041414;28;20187;-46
2022/09/21 01:07:09;;;;;;;5.50;3.10;;;7.50;99.90;;;;;;5043825;28;20191;-48
2022/09/21 01:09:36;;;;;;;3.07;2.73;;;7.50;99.90;;;;;;5041689;28;20215;-45
2022/09/21 01:12:14;;;;;;;5.57;3.50;;;7.50;99.90;;;;;;5042693;28;20191;-47
2022/09/21 01:15:08;;;;;;;3.47;2.63;;;7.50;99.90;;;;;;5027621;28;20207;-45
2022/09/21 01:17:44;;;;;;;5.10;3.20;;;7.60;99.90;;;;;;5042000;28;20200;-46
2022/09/21 01:20:31;;;;;;;6.07;3.10;;;7.60;99.90;;;;;;5044703;28;20187;-45
2022/09/21 01:23:16;;;;;;;3.00;2.70;;;7.50;99.90;;;;;;5042199;28;20192;-47
2022/09/21 01:26:00;;;;;;;2.97;2.50;;;7.50;99.90;;;;;;5040141;28;20302;-44
2022/09/21 01:28:40;;;;;;;3.00;2.70;;;7.40;99.90;;;;;;5030600;28;20207;-47
2022/09/21 01:31:13;;;;;;;3.30;3.00;;;7.40;99.90;;;;;;5044151;28;20241;-45
2022/09/21 01:33:46;;;;;;;4.20;2.93;;;7.30;99.90;;;;;;5039518;28;20195;-44
2022/09/21 01:36:16;;;;;;;6.73;3.03;;;7.30;99.90;;;;;;5044096;28;20572;-44
2022/09/21 01:38:48;;;;;;;5.23;3.23;;;7.20;99.90;;;;;;5040210;28;20258;-48
2022/09/21 01:41:19;;;;;;;4.53;2.87;;;7.20;99.90;;;;;;5043849;28;20282;-47
2022/09/21 01:43:50;;;;;;;5.27;3.30;;;7.20;99.90;;;;;;5026250;28;20215;-45
2022/09/21 01:46:20;;;;;;;3.83;2.90;;;7.10;99.90;;;;;;5043726;28;20212;-48
2022/09/21 01:48:52;;;;;;;5.50;2.80;;;7.10;99.90;;;;;;5039177;28;20283;-50
2022/09/21 01:51:21;;;;;;;5.03;2.70;;;7.00;99.90;;;;;;5043813;28;20206;-46
2022/09/21 01:53:52;;;;;;;5.20;3.37;;;7.00;99.90;;;;;;5038927;28;20186;-45
2022/09/21 01:56:24;;;;;;;7.43;3.20;;;7.00;99.90;;;;;;5043978;28;20215;-44
2022/09/21 01:58:59;;;;;;;5.60;3.50;;;7.00;99.90;;;;;;5027993;28;20207;-51
2022/09/21 02:01:31;;;;;;;7.43;3.30;;;7.00;99.90;;;;;;5043087;28;20598;-47
2022/09/21 02:04:02;;;;;;;5.10;3.10;;;7.00;99.90;;;;;;5041032;28;20183;-45
2022/09/21 02:06:30;;;;;;;4.90;3.47;;;7.00;99.90;;;;;;5042566;28;20286;-46
2022/09/21 02:08:57;;;;;;;4.00;3.30;;;6.90;99.90;;;;;;5041374;28;20187;-45
2022/09/21 02:11:24;;;;;;;3.97;3.60;;;6.90;99.90;;;;;;5043421;28;20223;-48
2022/09/21 02:13:53;;;;;;;5.83;3.40;;;6.90;99.90;;;;;;5038283;28;20250;-45
2022/09/21 02:16:35;;;;;;;3.87;3.43;;;7.00;99.90;;;;;;5031120;28;20238;-44
2022/09/21 02:19:13;;;;;;;8.13;3.60;;;7.00;99.90;;;;;;5042448;28;20200;-44
2022/09/21 02:21:57;;;;;;;5.13;3.53;;;7.00;99.90;;;;;;5039873;28;20213;-45
2022/09/21 02:24:33;;;;;;;6.73;3.63;;;7.00;99.90;;;;;;5041019;28;20564;-48
2022/09/21 02:27:04;;;;;;;6.17;2.70;;;7.00;99.90;;;;;;5041686;28;20207;-46
2022/09/21 02:29:44;;;;;;;5.97;3.33;;;7.00;99.90;;;;;;5041495;28;20207;-47
2022/09/21 02:32:20;;;;;;;7.77;3.33;;;7.00;99.90;;;;;;5030823;28;20211;-45
2022/09/21 02:34:52;;;;;;;7.03;3.43;;;6.90;99.90;;;;;;5038273;28;20197;-47
2022/09/21 02:37:24;;;;;;;13.30;3.40;;;7.00;99.90;;;;;;5043436;28;20191;-45
2022/09/21 02:39:59;;;;;;;5.70;3.40;;;6.90;99.90;;;;;;5040210;28;20184;-45
2022/09/21 02:42:31;;;;;;;3.03;2.83;;;7.00;99.90;;;;;;5042596;28;20567;-48
2022/09/21 02:45:04;;;;;;;6.03;2.87;;;7.00;99.90;;;;;;5040158;28;20981;-47
2022/09/21 02:47:38;;;;;;;4.90;3.03;;;6.90;99.90;;;;;;5029491;28;20261;-46
2022/09/21 02:50:10;;;;;;;6.63;3.13;;;6.90;99.90;;;;;;5042836;28;20207;-47
2022/09/21 02:52:41;;;;;;;5.90;3.10;;;6.90;99.90;;;;;;5040011;28;20202;-49
2022/09/21 02:55:10;;;;;;;4.83;2.80;;;6.90;99.90;;;;;;5042163;28;20216;-44
2022/09/21 02:57:38;;;;;;;4.13;2.83;;;6.90;99.90;;;;;;5040331;28;20198;-45
2022/09/21 03:00:06;;;;;;;3.77;2.80;;;6.90;99.90;;;;;;5042894;28;20195;-47
2022/09/21 03:02:39;;;;;;;4.87;2.80;;;6.80;99.90;;;;;;5033427;28;20188;-51
2022/09/21 03:05:07;;;;;;;5.03;2.80;;;6.80;99.90;;;;;;5040426;28;20219;-46
2022/09/21 03:07:35;;;;;;;4.70;2.60;;;6.70;99.90;;;;;;5040845;28;20199;-48
2022/09/21 03:10:02;;;;;;;3.47;3.17;;;6.70;99.90;;;;;;5041500;28;20203;-46
2022/09/21 03:12:29;;;;;;;4.67;3.07;;;6.70;99.90;;;;;;5041188;28;20199;-47
2022/09/21 03:14:56;;;;;;;5.57;3.67;;;6.70;99.90;;;;;;5039009;28;20265;-44
2022/09/21 03:17:24;;;;;;;3.23;2.97;;;6.70;99.90;;;;;;5042383;28;20203;-47
2022/09/21 03:19:54;;;;;;;3.37;3.00;;;6.70;99.90;;;;;;5030166;28;20187;-46
2022/09/21 03:22:21;;;;;;;4.13;2.77;;;6.70;99.90;;;;;;5042526;28;20214;-48
2022/09/21 03:24:48;;;;;;;5.13;3.20;;;6.60;99.90;;;;;;5038047;28;20430;-46
2022/09/21 03:27:15;;;;;;;3.90;3.20;;;6.60;99.90;;;;;;5045719;28;20195;-46
2022/09/21 03:29:42;;;;;;;3.73;3.37;;;6.50;99.90;;;;;;5042258;28;20242;-44
2022/09/21 03:32:10;;;;;;;5.67;3.70;;;6.50;99.90;;;;;;5046500;28;20712;-44
2022/09/21 03:34:36;;;;;;;4.43;3.33;;;6.50;99.90;;;;;;5030091;28;20325;-44
2022/09/21 03:37:06;;;;;;;4.90;3.90;;;6.50;99.90;;;;;;5045514;28;20199;-44
2022/09/21 03:39:34;;;;;;;4.63;3.90;;;6.50;99.90;;;;;;5044371;28;20496;-48
2022/09/21 03:42:01;;;;;;;3.60;3.10;;;6.50;99.90;;;;;;5045251;28;20490;-48
2022/09/21 03:44:28;;;;;;;4.37;3.53;;;6.50;99.90;;;;;;5043989;28;20596;-47
2022/09/21 03:46:55;;;;;;;3.83;3.53;;;6.50;99.90;;;;;;5043807;28;20219;-46
2022/09/21 03:49:22;;;;;;;4.93;3.20;;;6.50;99.90;;;;;;5033979;28;20520;-45
2022/09/21 03:51:48;;;;;;;5.60;3.67;;;6.50;99.90;;;;;;5042059;28;20202;-47
2022/09/21 03:54:16;;;;;;;7.87;3.43;;;6.50;99.90;;;;;;5045117;28;20194;-44
2022/09/21 03:56:43;;;;;;;5.73;3.87;;;6.40;99.90;;;;;;5042013;28;20203;-44
2022/09/21 03:59:10;;;;;;;5.57;4.43;;;6.40;99.90;;;;;;5045863;28;20198;-45
2022/09/21 04:01:37;;;;;;;7.47;4.47;;;6.30;99.90;;;;;;5043273;28;20192;-47
2022/09/21 04:04:04;;;;;;;6.57;3.50;;;6.30;99.90;;;;;;5044285;28;20196;-44
2022/09/21 04:06:31;;;;;;;4.57;4.17;;;6.40;99.90;;;;;;5031848;28;20297;-48
2022/09/21 04:08:59;;;;;;;5.80;4.03;;;6.30;99.90;;;;;;5044156;28;20202;-44
2022/09/21 04:11:27;;;;;;;5.37;3.93;;;6.30;99.90;;;;;;5045047;28;20207;-48
2022/09/21 04:13:56;;;;;;;7.03;4.23;;;6.30;99.90;;;;;;5041691;28;20194;-46
2022/09/21 04:16:23;;;;;;;5.87;4.37;;;6.30;99.90;;;;;;5045820;28;20685;-44
2022/09/21 04:18:50;;;;;;;4.57;4.03;;;6.40;99.90;;;;;;5042255;28;20925;-44
2022/09/21 04:21:17;;;;;;;8.47;5.03;;;6.30;99.90;;;;;;5033470;28;20207;-45
2022/09/21 04:23:45;;;;;;;5.00;4.20;;;6.30;99.90;;;;;;5040356;28;20196;-46
2022/09/21 04:26:23;;;;;;;6.93;3.97;;;6.30;99.90;;;;;;5045467;28;20215;-47
2022/09/21 04:28:52;;;;;;;6.60;3.63;;;6.30;99.90;;;;;;5041991;28;20183;-44
2022/09/21 04:31:19;;;;;;;5.17;4.07;;;6.20;99.90;;;;;;5045423;28;20211;-44
2022/09/21 04:33:49;;;;;;;7.33;4.27;;;6.20;99.90;;;;;;5040790;28;20791;-43
2022/09/21 04:36:17;;;;;;;7.83;4.23;;;6.20;99.90;;;;;;5032791;28;20219;-43
2022/09/21 04:38:43;;;;;;;4.47;3.90;;;6.10;99.90;;;;;;5040686;28;20195;-44
2022/09/21 04:41:11;;;;;;;8.83;3.83;;;6.00;99.90;;;;;;5045207;28;20187;-43
2022/09/21 04:43:38;;;;;;;5.93;4.00;;;6.00;99.90;;;;;;5040913;28;20690;-43
2022/09/21 04:46:08;;;;;;;8.13;3.93;;;6.00;99.90;;;;;;5044342;28;20215;-43
2022/09/21 04:48:36;;;;;;;6.07;4.13;;;6.00;99.90;;;;;;5042573;28;20188;-45
2022/09/21 04:51:05;;;;;;;4.10;3.80;;;6.00;99.90;;;;;;5031927;28;20219;-42
2022/09/21 04:53:31;;;;;;;5.33;3.80;;;6.10;99.90;;;;;;5041905;28;20285;-46
2022/09/21 04:55:58;;;;;;;5.97;4.50;;;6.10;99.90;;;;;;5042991;28;20951;-45
2022/09/21 04:58:25;;;;;;;5.17;4.53;;;6.00;99.90;;;;;;5044455;28;20195;-44
2022/09/21 05:00:54;;;;;;;4.57;4.00;;;6.00;99.90;;;;;;5041776;28;20258;-45
2022/09/21 05:03:23;;;;;;;4.73;3.60;;;6.00;99.90;;;;;;5043891;28;20193;-46
2022/09/21 05:05:52;;;;;;;5.67;4.37;;;6.10;99.90;;;;;;5041460;28;20207;-45
2022/09/21 05:10:01;;;;;;;4.67;4.20;;;6.10;99.90;;;;;;5032165;28;20218;-45
2022/09/21 05:11:09;;;;;;;4.63;3.60;;;6.10;99.90;;;;;;5044367;28;20310;-44
2022/09/21 05:13:36;;;;;;;5.17;3.30;;;6.00;99.90;;;;;;5041117;28;20191;-46
2022/09/21 05:16:03;;;;;;;5.73;3.80;;;6.00;99.90;;;;;;5043758;28;20212;-45
2022/09/21 05:18:31;;;;;;;5.23;3.47;;;6.10;99.90;;;;;;5043440;28;20653;-45
2022/09/21 05:20:59;;;;;;;4.63;3.73;;;6.00;99.90;;;;;;5042567;28;20301;-47
2022/09/21 05:23:28;;;;;;;6.33;4.37;;;6.00;99.90;;;;;;5029847;28;20219;-46
2022/09/21 05:25:55;;;;;;;4.57;3.70;;;6.00;99.90;;;;;;5041432;28;20215;-46
2022/09/21 05:28:23;;;;;;;5.83;4.20;;;6.00;99.90;;;;;;5035205;28;20787;-45
2022/09/21 05:30:57;;;;;;;3.63;3.27;;;6.00;99.90;;;;;;5044239;28;20215;-45
2022/09/21 05:33:28;;;;;;;4.00;3.60;;;6.10;99.90;;;;;;5034526;28;20820;-47
2022/09/21 05:36:06;;;;;;;5.43;4.07;;;6.10;99.90;;;;;;5044331;28;20599;-44
2022/09/21 05:38:33;;;;;;;5.00;4.07;;;6.10;99.90;;;;;;5029558;28;20202;-45
2022/09/21 05:41:00;;;;;;;4.47;3.90;;;6.10;99.90;;;;;;5043580;28;20192;-44
2022/09/21 05:43:27;;;;;;;4.60;3.60;;;6.10;99.90;;;;;;5039874;28;20250;-45
2022/09/21 05:46:01;;;;;;;5.10;3.80;;;6.00;99.90;;;;;;5042970;28;20219;-45
2022/09/21 05:48:34;;;;;;;5.07;4.03;;;6.00;99.90;;;;;;5037544;28;20222;-44
2022/09/21 05:51:07;;;;;;;4.13;3.73;;;6.00;99.90;;;;;;5043285;28;20211;-45
2022/09/21 05:53:45;;;;;;;3.90;3.50;;;6.00;99.90;;;;;;5028925;28;20919;-46
2022/09/21 05:56:21;;;;;;;3.97;3.57;;;6.10;99.90;;;;;;5041068;28;20214;-49
2022/09/21 05:58:58;;;;;;;5.17;4.10;;;6.10;99.90;;;;;;5043741;28;20202;-46
2022/09/21 06:01:36;;;;;;;4.43;3.97;;;6.10;99.90;;;;;;5040297;28;20183;-48
2022/09/21 06:04:04;;;;;;;4.47;4.07;;;6.20;99.90;;;;;;5044581;28;20206;-49
2022/09/21 06:06:32;;;;;;;8.50;4.23;;;6.30;99.90;;;;;;5060990;28;20469;-46
2022/09/21 06:08:58;;;;;;;5.07;4.50;;;6.30;99.90;;;;;;5034721;28;20551;-49
2022/09/21 06:11:25;;;;;;;4.20;3.80;;;6.30;99.90;;;;;;5039832;28;20951;-44
2022/09/21 06:13:52;;;;;;;4.50;4.10;;;6.40;99.90;;;;;;5041357;28;20198;-45
2022/09/21 06:16:19;;;;;;;5.30;4.80;;;6.50;99.90;;;;;;5039669;28;20885;-45
2022/09/21 06:18:46;;;;;;;4.60;4.20;;;6.60;99.90;;;;;;5037295;28;20276;-48
2022/09/21 06:21:12;;;;;;;5.47;4.13;;;6.60;99.90;;;;;;5048939;28;20199;-45
2022/09/21 06:23:41;;;;;;;6.00;3.93;;;6.70;99.90;;;;;;5023896;28;20235;-49
2022/09/21 06:26:08;;;;;;;4.47;4.07;;;6.80;99.90;;;;;;5048151;28;20215;-48
2022/09/21 06:28:34;;;;;;;5.03;4.47;;;6.90;99.90;;;;;;5039893;28;20703;-47
2022/09/21 06:31:01;;;;;;;6.13;4.20;;;6.90;99.90;;;;;;5041476;28;20966;-48
2022/09/21 06:33:28;;;;;;;5.23;4.70;;;7.00;99.90;;;;;;5040633;28;20248;-46
2022/09/21 06:35:57;;;;;;;6.07;4.77;;;7.00;99.90;;;;;;5034497;28;20227;-45
2022/09/21 06:38:24;;;;;;;5.20;4.17;;;7.10;99.90;;;;;;5042537;28;20222;-46
2022/09/21 06:40:53;;;;;;;6.67;4.40;;;7.20;99.90;;;;;;5027785;28;20375;-45
2022/09/21 06:43:21;;;;;;;5.30;4.73;;;7.20;99.90;;;;;;5040853;28;20707;-47
2022/09/21 06:45:53;;;;;;;6.00;4.90;;;7.30;99.90;;;;;;5037177;28;20988;-44
2022/09/21 06:48:21;;;;;;;9.13;6.10;;;7.30;99.90;;;;;;5042736;28;20200;-44
2022/09/21 06:50:48;;;;;;;7.47;5.33;;;7.40;99.90;;;;;;5034843;28;20334;-44
2022/09/21 06:53:15;;;;;;;7.37;5.87;;;7.50;99.90;;;;;;5056805;28;20208;-47
2022/09/21 06:55:42;;;;;;;5.87;5.13;;;7.60;99.90;;;;;;5026300;28;20226;-45
2022/09/21 06:58:10;;;;;;;7.60;5.80;;;7.60;99.90;;;;;;5038323;28;20237;-47
2022/09/21 07:00:37;;;;;;;9.20;6.13;;;7.70;99.90;;;;;;5043810;28;20599;-45
2022/09/21 07:03:04;;;;;;;6.63;5.20;;;7.80;99.90;;;;;;5042627;28;20187;-49
2022/09/21 07:05:32;;;;;;;7.77;5.23;;;7.90;99.90;;;;;;5044922;28;20257;-45
2022/09/21 07:07:59;;;;;;;5.53;5.03;;;8.00;99.90;;;;;;5042918;28;20199;-50
2022/09/21 07:10:26;;;;;;;6.80;5.10;;;8.00;99.90;;;;;;5033339;28;20813;-45
2022/09/21 07:12:53;;;;;;;6.77;5.57;;;8.20;99.90;;;;;;5037082;28;20211;-45
2022/09/21 07:15:22;;;;;;;5.73;5.00;;;8.30;99.90;;;;;;5043844;28;20452;-44
2022/09/21 07:17:49;;;;;;;12.30;5.63;;;8.40;99.90;;;;;;5045152;28;20219;-47
2022/09/21 07:20:17;;;;;;;5.80;5.33;;;8.50;99.90;;;;;;5043654;28;20232;-45
2022/09/21 07:22:44;;;;;;;6.27;5.67;;;8.60;99.90;;;;;;5042317;28;20210;-48
2022/09/21 07:25:11;;;;;;;6.60;5.57;;;8.90;99.90;;;;;;5029707;28;20211;-46
2022/09/21 07:27:38;;;;;;;6.37;5.77;;;9.10;99.90;;;;;;5046093;28;20196;-45
2022/09/21 07:30:07;;;;;;;6.73;5.60;;;9.20;99.90;;;;;;5040452;28;20715;-47
2022/09/21 07:32:36;;;;;;;6.93;6.33;;;9.30;99.90;;;;;;5045765;28;20241;-44
2022/09/21 07:35:03;;;;;;;8.60;6.07;;;9.40;99.90;;;;;;5041094;28;20230;-46
2022/09/21 07:37:31;;;;;;;6.97;6.27;;;9.60;99.90;;;;;;5046039;28;20677;-46
2022/09/21 07:40:01;;;;;;;7.20;6.33;;;9.70;99.90;;;;;;5031129;28;20222;-50
2022/09/21 07:42:29;;;;;;;7.77;6.17;;;9.80;99.90;;;;;;5045059;28;20549;-44
2022/09/21 07:44:56;;;;;;;5.57;4.90;;;9.90;99.90;;;;;;5042572;28;20249;-48
2022/09/21 07:47:26;;;;;;;5.57;5.10;;;10.00;99.90;;;;;;5044310;28;20195;-45
2022/09/21 07:49:54;;;;;;;5.77;4.70;;;10.20;99.90;;;;;;5044329;28;20270;-50
2022/09/21 07:52:21;;;;;;;6.37;4.67;;;10.30;99.90;;;;;;5043129;28;20276;-46
2022/09/21 07:54:47;;;;;;;6.67;3.83;;;10.40;99.90;;;;;;5052703;28;20207;-51
2022/09/21 07:59:59;;;;;;;4.40;3.73;;;10.70;99.90;;;;;;5037363;28;20206;-46
2022/09/21 08:02:26;;;;;;;4.03;3.73;;;10.80;99.90;;;;;;5033997;28;20195;-50
2022/09/21 08:04:54;;;;;;;4.27;3.67;;;10.90;99.90;;;;;;5033154;28;20699;-44
2022/09/21 08:07:20;;;;;;;3.30;3.10;;;11.10;99.90;;;;;;5041626;28;20191;-45
2022/09/21 08:09:49;;;;;;;8.00;4.13;;;11.30;99.90;;;;;;5049415;28;20206;-46
2022/09/21 08:12:17;;;;;;;4.27;3.57;;;11.40;99.90;;;;;;5031606;28;20307;-47
2022/09/21 08:14:44;;;;;;;4.00;3.33;;;11.40;99.90;;;;;;5039898;28;20207;-45
2022/09/21 08:17:11;;;;;;;4.93;3.30;;;11.50;99.90;;;;;;5043896;28;20559;-50
2022/09/21 08:19:37;;;;;;;4.77;3.33;;;11.60;99.90;;;;;;5042921;28;20212;-47
2022/09/21 08:22:06;;;;;;;4.03;3.63;;;11.60;99.90;;;;;;5042695;28;20659;-45
2022/09/21 08:24:33;;;;;;;4.40;3.70;;;11.70;99.90;;;;;;5036150;28;20207;-45
2022/09/21 08:27:01;;;;;;;3.40;3.10;;;11.80;99.90;;;;;;5041762;28;20596;-45
2022/09/21 08:29:28;;;;;;;3.70;3.30;;;11.90;99.90;;;;;;5039551;28;20279;-45
2022/09/21 08:31:56;;;;;;;3.37;3.13;;;12.10;99.90;;;;;;5043525;28;20223;-45
2022/09/21 08:34:23;;;;;;;2.63;2.43;;;12.20;99.90;;;;;;5035272;28;20678;-49
2022/09/21 08:36:50;;;;;;;3.23;2.83;;;12.30;99.90;;;;;;5047999;28;20241;-45
2022/09/21 08:39:18;;;;;;;3.07;2.33;;;12.40;99.90;;;;;;5039875;28;20203;-47
2022/09/21 08:41:59;;;;;;;3.07;2.60;;;12.50;99.90;;;;;;5032443;28;20214;-45
2022/09/21 08:44:31;;;;;;;5.03;2.20;;;12.60;99.90;;;;;;5038359;28;20210;-48
2022/09/21 08:47:04;;;;;;;2.73;2.00;;;12.60;99.90;;;;;;5044301;28;20242;-46
2022/09/21 08:49:35;;;;;;;3.97;2.27;;;12.70;99.90;;;;;;5035859;28;20195;-46
2022/09/21 08:52:05;;;;;;;4.27;1.50;;;12.90;99.90;;;;;;5044064;28;20304;-47
2022/09/21 08:54:43;;;;;;;2.00;1.50;;;13.00;99.90;;;;;;5041542;28;20214;-45
2022/09/21 08:57:12;;;;;;;3.83;1.97;;;13.00;99.90;;;;;;5038671;28;20206;-47
2022/09/21 08:59:43;;;;;;;2.93;1.50;;;13.10;99.90;;;;;;5032846;28;20199;-47
2022/09/21 09:02:29;;;;;;;2.57;1.67;;;13.30;99.90;;;;;;5036035;28;20192;-47
2022/09/21 09:05:03;;;;;;;2.53;1.53;;;13.30;99.90;;;;;;5041174;28;20214;-45
2022/09/21 09:07:59;;;;;;;1.83;1.40;;;13.40;99.90;;;;;;5034959;28;20203;-47
2022/09/21 09:10:37;;;;;;;2.47;1.07;;;13.50;99.90;;;;;;5040255;28;20230;-49
2022/09/21 09:13:21;;;;;;;1.47;0.90;;;13.50;99.90;;;;;;5038330;28;20756;-45
2022/09/21 09:15:58;;;;;;;2.30;1.13;;;13.60;99.90;;;;;;5040285;28;20227;-48
2022/09/21 09:18:32;;;;;;;1.40;1.30;;;13.80;99.90;;;;;;5039264;28;20203;-50
2022/09/21 09:21:04;;;;;;;1.43;1.10;;;13.90;99.90;;;;;;5052420;28;20218;-45
2022/09/21 09:23:34;;;;;;;2.43;1.33;;;14.10;99.90;;;;;;5034181;28;20905;-45
2022/09/21 09:26:09;;;;;;;2.50;1.10;;;14.10;99.90;;;;;;5042764;28;20222;-45
2022/09/21 09:28:41;;;;;;;0.70;0.70;;;14.10;99.90;;;;;;5023328;28;20211;-42
2022/09/21 09:31:16;;;;;;;0.70;0.60;;;14.20;99.90;;;;;;5041634;28;20266;-48
2022/09/21 09:33:50;;;;;;;1.30;0.47;;;14.30;99.90;;;;;;5039727;28;20191;-43
2022/09/21 09:36:17;;;;;;;3.90;0.60;;;14.30;99.90;;;;;;5044109;28;20575;-46
2022/09/21 09:38:50;;;;;;;0.43;0.43;;;14.30;99.90;;;;;;5050327;28;20214;-47
2022/09/21 09:41:39;;;;;;;1.60;0.60;;;14.40;99.90;;;;;;5060760;28;20187;-49
2022/09/21 09:44:21;;;;;;;2.13;0.70;;;14.50;99.90;;;;;;5026726;28;20226;-44
2022/09/21 09:46:58;;;;;;;0.93;0.87;;;14.60;99.90;;;;;;5041783;28;20207;-44
2022/09/21 09:49:36;;;;;;;0.70;0.70;;;14.70;99.90;;;;;;5036278;28;20203;-49
2022/09/21 09:52:03;;;;;;;0.93;0.50;;;14.70;99.90;;;;;;5038786;28;20237;-43
2022/09/21 09:54:34;;;;;;;2.07;0.50;;;14.80;99.90;;;;;;5041804;28;20202;-43
2022/09/21 09:57:04;;;;;;;0.90;0.43;;;14.90;99.90;;;;;;5041853;28;20207;-45
2022/09/21 09:59:37;;;;;;;1.30;0.67;;;14.90;99.90;;;;;;5025101;28;20298;-45
2022/09/21 10:02:07;;;;;;;0.77;0.57;;;14.90;99.90;;;;;;5041442;28;20274;-46
2022/09/21 10:04:34;;;;;;;1.57;0.70;;;14.90;99.90;;;;;;5037590;28;20195;-45
2022/09/21 10:07:01;;;;;;;1.80;0.60;;;14.90;99.90;;;;;;5041102;28;20624;-46
2022/09/21 10:09:30;;;;;;;0.90;0.50;;;15.00;99.90;;;;;;5037815;28;20214;-43
2022/09/21 10:12:00;;;;;;;0.80;0.60;;;15.00;99.90;;;;;;5041289;28;20310;-44
2022/09/21 10:14:32;;;;;;;0.50;0.50;;;15.00;99.90;;;;;;5035324;28;20212;-43
2022/09/21 10:17:05;;;;;;;0.30;0.30;;;15.10;99.90;;;;;;5029581;28;20269;-44
2022/09/21 10:19:33;;;;;;;1.70;0.50;;;15.10;99.90;;;;;;5036358;28;20195;-47
2022/09/21 10:22:02;;;;;;;1.07;0.30;;;15.10;99.90;;;;;;5041768;28;20196;-46
2022/09/21 10:24:32;;;;;;;0.77;0.30;;;15.20;99.90;;;;;;5034950;28;20218;-44
2022/09/21 10:27:05;;;;;;;0.30;0.20;;;15.20;99.90;;;;;;5047363;28;20231;-46
2022/09/21 10:29:39;;;;;;;0.33;0.20;;;15.20;99.90;;;;;;5035407;28;20206;-44
2022/09/21 10:32:19;;;;;;;0.63;0.37;;;15.10;99.90;;;;;;5027762;28;20211;-44
2022/09/21 10:35:16;;;;;;;0.40;0.40;;;15.20;99.90;;;;;;5036995;28;20207;-46
2022/09/21 10:37:47;;;;;;;0.20;0.20;;;15.10;99.90;;;;;;5033920;28;20766;-50
2022/09/21 10:40:26;;;;;;;0.47;0.30;;;15.20;99.90;;;;;;5043782;28;20226;-44
2022/09/21 10:42:57;;;;;;;0.97;0.50;;;15.10;99.90;;;;;;5036496;28;20183;-44
2022/09/21 10:45:27;;;;;;;0.40;0.30;;;15.20;99.90;;;;;;5040100;28;20247;-44
2022/09/21 10:47:57;;;;;;;1.17;0.50;;;15.30;99.90;;;;;;5018184;28;23486;-44
2022/09/21 10:50:27;;;;;;;0.50;0.50;;;15.40;99.90;;;;;;5042620;28;20202;-45
2022/09/21 10:53:01;;;;;;;0.80;0.40;;;15.40;99.90;;;;;;5038247;28;20212;-46
2022/09/21 10:55:30;;;;;;;1.00;0.33;;;15.40;99.90;;;;;;5041532;28;20227;-46
2022/09/21 10:57:58;;;;;;;0.60;0.60;;;15.50;99.90;;;;;;5034382;28;20206;-46
2022/09/21 11:00:40;;;;;;;0.30;0.30;;;15.70;99.90;;;;;;5040028;28;20187;-49
2022/09/21 11:03:28;;;;;;;0.30;0.30;;;16.00;99.90;;;;;;5023548;28;20397;-47
2022/09/21 11:05:58;;;;;;;0.60;0.33;;;16.10;99.90;;;;;;5031394;28;20222;-44
2022/09/21 11:08:33;;;;;;;0.27;0.27;;;16.00;99.90;;;;;;5041171;28;20206;-46
2022/09/21 11:11:13;;;;;;;2.03;0.50;;;16.00;99.90;;;;;;5036705;28;20202;-43
2022/09/21 11:13:47;;;;;;;4.63;0.70;;;15.90;99.90;;;;;;5038920;28;20210;-44
2022/09/21 11:16:21;;;;;;;0.30;0.30;;;16.00;99.90;;;;;;5038615;28;20222;-45
2022/09/21 11:18:58;;;;;;;1.63;0.70;;;16.00;99.90;;;;;;5019136;28;20211;-46
2022/09/21 11:21:32;;;;;;;1.07;0.77;;;16.00;99.90;;;;;;5036655;28;20676;-44
2022/09/21 11:24:09;;;;;;;0.60;0.60;;;16.00;99.90;;;;;;5037813;28;20187;-48
2022/09/21 11:26:43;;;;;;;1.80;0.60;;;16.00;99.90;;;;;;5042926;28;20222;-44
2022/09/21 11:29:15;;;;;;;0.87;0.50;;;16.10;99.90;;;;;;5047640;28;20199;-50
2022/09/21 11:31:56;;;;;;;0.60;0.60;;;16.10;99.90;;;;;;5037894;28;20199;-46
2022/09/21 11:34:36;;;;;;;0.77;0.50;;;16.10;99.90;;;;;;5025966;28;20207;-44
2022/09/21 11:37:13;;;;;;;0.53;0.53;;;16.10;99.90;;;;;;5034494;28;20210;-45
2022/09/21 11:39:53;;;;;;;1.10;0.47;;;16.10;99.90;;;;;;5036604;28;20191;-49
2022/09/21 11:42:36;;;;;;;0.97;0.40;;;16.20;99.90;;;;;;5034319;28;20722;-43
2022/09/21 11:45:10;;;;;;;0.80;0.60;;;16.40;99.90;;;;;;5034828;28;20269;-47
2022/09/21 11:47:53;;;;;;;1.13;0.70;;;16.50;99.90;;;;;;5034075;28;20195;-50
2022/09/21 11:50:40;;;;;;;1.07;0.73;;;16.60;99.90;;;;;;5029870;28;20211;-44
2022/09/21 11:53:31;;;;;;;0.90;0.80;;;16.50;99.90;;;;;;5040392;28;20219;-44
2022/09/21 11:56:11;;;;;;;0.70;0.70;;;16.60;99.90;;;;;;5034651;28;20226;-47
2022/09/21 11:58:46;;;;;;;1.10;0.70;;;16.50;99.90;;;;;;5036358;28;20572;-49
2022/09/21 12:01:26;;;;;;;1.87;0.90;;;16.50;99.90;;;;;;5036631;28;20203;-44
2022/09/21 12:04:11;;;;;;;1.33;1.00;;;16.50;99.90;;;;;;5025226;28;21573;-46
2022/09/21 12:06:50;;;;;;;0.50;0.50;;;16.50;98.80;;;;;;5028544;28;20224;-44
2022/09/21 12:09:45;;;;;;;1.00;0.83;;;16.50;99.50;;;;;;5040394;28;20191;-49
2022/09/21 12:12:19;;;;;;;1.00;0.60;;;16.60;99.30;;;;;;5032263;28;20286;-44
2022/09/21 12:14:54;;;;;;;1.33;0.77;;;16.70;99.00;;;;;;5041392;28;20179;-44
2022/09/21 12:17:28;;;;;;;1.33;0.90;;;16.60;99.40;;;;;;5039378;28;20824;-48
2022/09/21 12:20:06;;;;;;;2.00;0.80;;;16.60;99.60;;;;;;5026600;28;20226;-43
2022/09/21 12:22:36;;;;;;;1.10;0.80;;;16.50;99.40;;;;;;5029026;28;20301;-44
2022/09/21 12:25:11;;;;;;;2.27;1.03;;;16.70;98.50;;;;;;5042872;28;20222;-46
2022/09/21 12:27:42;;;;;;;0.90;0.90;;;16.70;98.50;;;;;;5043932;28;20524;-44
2022/09/21 12:30:13;;;;;;;1.73;0.90;;;16.80;98.00;;;;;;5038359;28;20849;-48
2022/09/21 12:32:49;;;;;;;0.90;0.80;;;16.90;97.40;;;;;;5041525;28;20254;-45
2022/09/21 12:35:22;;;;;;;1.77;0.90;;;17.00;97.40;;;;;;5024232;28;20253;-47
2022/09/21 12:38:00;;;;;;;0.83;0.73;;;17.10;97.00;;;;;;5035437;28;20207;-44
2022/09/21 12:40:36;;;;;;;1.83;0.90;;;17.20;96.70;;;;;;5035437;28;20202;-44
2022/09/21 12:43:13;;;;;;;1.37;0.97;;;17.30;96.20;;;;;;5042271;28;20206;-48
2022/09/21 12:45:45;;;;;;;1.10;1.00;;;17.40;95.80;;;;;;5042327;28;20219;-45
2022/09/21 12:48:22;;;;;;;1.00;0.90;;;17.30;96.30;;;;;;5033961;28;20223;-49
2022/09/21 12:50:55;;;;;;;1.00;0.80;;;17.30;95.80;;;;;;5029265;28;20207;-46
2022/09/21 12:53:24;;;;;;;2.10;1.37;;;17.20;96.60;;;;;;5026919;28;21707;-44
2022/09/21 12:56:00;;;;;;;1.00;0.90;;;17.20;96.30;;;;;;5042626;28;20229;-47
2022/09/21 12:58:47;;;;;;;0.77;0.70;;;17.20;96.50;;;;;;5042075;28;20495;-46
2022/09/21 13:01:25;;;;;;;3.40;0.90;;;17.40;94.40;;;;;;5035829;28;20199;-47
2022/09/21 13:04:11;;;;;;;2.67;1.17;;;17.40;95.10;;;;;;5042233;28;20203;-45
2022/09/21 13:07:07;;;;;;;0.70;0.70;;;17.40;94.70;;;;;;5027557;28;20226;-44
2022/09/21 13:09:39;;;;;;;1.43;0.50;;;17.50;94.10;;;;;;5030140;28;20688;-46
2022/09/21 13:12:09;;;;;;;0.90;0.70;;;17.50;94.60;;;;;;5042391;28;20679;-46
2022/09/21 13:14:42;;;;;;;1.80;0.90;;;17.50;94.40;;;;;;5037420;28;20219;-45
2022/09/21 13:17:20;;;;;;;0.80;0.60;;;17.70;94.00;;;;;;5037004;28;20664;-51